St. Maarten, Netherlands Antilles
Current Conditions -  °F | °C
As of 3:00 AM on Tuesday 21 Oct 2014 (Local Time) from TNCM Reporting Station
Few Clouds Few Clouds  
Wind Chill: 81°   Ceiling: Unl
Heat Index: 85°   Visibility: 6mi
Dew Point: 73°   Wind: 6mph
Humidity: 79%   Direction: 80°E
Pressure: 29.91"   Gusts: NA
Location:  18.05°N, 63.12°W
Report Text: TNCM 210700Z 08005KT 060120 9999 FEW019 27/23 Q1013 A2992
Loading
Personal Weather Stations






























Interactive Weather Map
Tropical Storm Tracking
New forecast layout! Learn more

10-Day Weather Forecast

Advertisements
Track Severe Weather on mobile